sensor_id;sensor_type;location;lat;lon;timestamp;P1;durP1;ratioP1;P2;durP2;ratioP2
3873;SDS011;1952;50.872;6.692;2023-09-19T00:00:38;5.13;;;2.90;;
3873;SDS011;1952;50.872;6.692;2023-09-19T00:03:07;5.00;;;2.40;;
3873;SDS011;1952;50.872;6.692;2023-09-19T00:05:36;3.77;;;2.33;;
3873;SDS011;1952;50.872;6.692;2023-09-19T00:08:05;3.73;;;2.80;;
3873;SDS011;1952;50.872;6.692;2023-09-19T00:10:34;3.40;;;2.20;;
3873;SDS011;1952;50.872;6.692;2023-09-19T00:13:04;3.23;;;2.13;;
3873;SDS011;1952;50.872;6.692;2023-09-19T00:15:36;2.33;;;2.13;;
3873;SDS011;1952;50.872;6.692;2023-09-19T00:18:04;3.33;;;2.47;;
3873;SDS011;1952;50.872;6.692;2023-09-19T00:20:35;2.93;;;2.30;;
3873;SDS011;1952;50.872;6.692;2023-09-19T00:23:03;2.77;;;2.47;;
3873;SDS011;1952;50.872;6.692;2023-09-19T00:25:35;4.33;;;2.30;;
3873;SDS011;1952;50.872;6.692;2023-09-19T00:28:05;4.93;;;2.40;;
3873;SDS011;1952;50.872;6.692;2023-09-19T00:30:34;3.60;;;2.40;;
3873;SDS011;1952;50.872;6.692;2023-09-19T00:33:05;4.17;;;2.80;;
3873;SDS011;1952;50.872;6.692;2023-09-19T00:35:34;4.67;;;2.67;;
3873;SDS011;1952;50.872;6.692;2023-09-19T00:38:03;4.20;;;2.70;;
3873;SDS011;1952;50.872;6.692;2023-09-19T00:40:33;6.07;;;2.80;;
3873;SDS011;1952;50.872;6.692;2023-09-19T00:43:02;5.10;;;3.40;;
3873;SDS011;1952;50.872;6.692;2023-09-19T00:45:31;4.30;;;3.03;;
3873;SDS011;1952;50.872;6.692;2023-09-19T00:48:00;4.10;;;2.40;;
3873;SDS011;1952;50.872;6.692;2023-09-19T00:50:37;4.60;;;2.03;;
3873;SDS011;1952;50.872;6.692;2023-09-19T00:53:08;6.83;;;3.13;;
3873;SDS011;1952;50.872;6.692;2023-09-19T00:55:36;8.80;;;2.90;;
3873;SDS011;1952;50.872;6.692;2023-09-19T00:58:05;4.50;;;2.30;;
3873;SDS011;1952;50.872;6.692;2023-09-19T01:00:35;6.00;;;2.30;;
3873;SDS011;1952;50.872;6.692;2023-09-19T01:03:05;3.03;;;2.70;;
3873;SDS011;1952;50.872;6.692;2023-09-19T01:43:32;6.70;;;2.90;;
3873;SDS011;1952;50.872;6.692;2023-09-19T01:46:08;7.13;;;2.53;;
3873;SDS011;1952;50.872;6.692;2023-09-19T01:48:42;4.57;;;2.80;;
3873;SDS011;1952;50.872;6.692;2023-09-19T01:51:22;7.73;;;2.60;;
3873;SDS011;1952;50.872;6.692;2023-09-19T01:53:59;5.50;;;2.80;;
3873;SDS011;1952;50.872;6.692;2023-09-19T01:56:31;7.63;;;2.87;;
3873;SDS011;1952;50.872;6.692;2023-09-19T01:59:06;3.43;;;2.57;;
3873;SDS011;1952;50.872;6.692;2023-09-19T02:01:37;3.63;;;2.47;;
3873;SDS011;1952;50.872;6.692;2023-09-19T02:04:06;7.27;;;3.33;;
3873;SDS011;1952;50.872;6.692;2023-09-19T02:06:35;4.83;;;2.10;;
3873;SDS011;1952;50.872;6.692;2023-09-19T02:09:04;3.30;;;2.40;;
3873;SDS011;1952;50.872;6.692;2023-09-19T02:11:32;4.83;;;2.50;;
3873;SDS011;1952;50.872;6.692;2023-09-19T02:14:01;4.77;;;2.90;;
3873;SDS011;1952;50.872;6.692;2023-09-19T02:16:32;5.13;;;2.77;;
3873;SDS011;1952;50.872;6.692;2023-09-19T02:19:00;3.23;;;2.10;;
3873;SDS011;1952;50.872;6.692;2023-09-19T02:21:31;7.23;;;2.93;;
3873;SDS011;1952;50.872;6.692;2023-09-19T02:23:59;2.97;;;2.30;;
3873;SDS011;1952;50.872;6.692;2023-09-19T02:26:29;3.53;;;3.20;;
3873;SDS011;1952;50.872;6.692;2023-09-19T02:28:57;5.17;;;2.53;;
3873;SDS011;1952;50.872;6.692;2023-09-19T02:31:27;5.47;;;2.90;;
3873;SDS011;1952;50.872;6.692;2023-09-19T02:33:57;6.07;;;2.53;;
3873;SDS011;1952;50.872;6.692;2023-09-19T02:36:26;4.40;;;2.63;;
3873;SDS011;1952;50.872;6.692;2023-09-19T02:38:57;5.47;;;2.57;;
3873;SDS011;1952;50.872;6.692;2023-09-19T02:41:25;5.23;;;2.10;;
3873;SDS011;1952;50.872;6.692;2023-09-19T02:43:55;5.77;;;2.90;;
3873;SDS011;1952;50.872;6.692;2023-09-19T02:46:24;7.20;;;2.90;;
3873;SDS011;1952;50.872;6.692;2023-09-19T02:48:52;4.23;;;2.57;;
3873;SDS011;1952;50.872;6.692;2023-09-19T02:51:22;6.73;;;2.83;;
3873;SDS011;1952;50.872;6.692;2023-09-19T02:53:50;5.33;;;2.60;;
3873;SDS011;1952;50.872;6.692;2023-09-19T02:56:20;4.23;;;2.57;;
3873;SDS011;1952;50.872;6.692;2023-09-19T02:58:51;8.87;;;2.80;;
3873;SDS011;1952;50.872;6.692;2023-09-19T03:01:21;6.87;;;2.43;;
3873;SDS011;1952;50.872;6.692;2023-09-19T03:03:50;4.57;;;2.50;;
3873;SDS011;1952;50.872;6.692;2023-09-19T03:06:19;5.23;;;3.07;;
3873;SDS011;1952;50.872;6.692;2023-09-19T03:08:49;8.27;;;3.53;;
3873;SDS011;1952;50.872;6.692;2023-09-19T03:11:17;3.33;;;2.53;;
3873;SDS011;1952;50.872;6.692;2023-09-19T03:13:52;6.47;;;2.77;;
3873;SDS011;1952;50.872;6.692;2023-09-19T03:16:21;6.03;;;2.50;;
3873;SDS011;1952;50.872;6.692;2023-09-19T03:18:51;6.60;;;2.33;;
3873;SDS011;1952;50.872;6.692;2023-09-19T03:21:19;4.93;;;2.30;;
3873;SDS011;1952;50.872;6.692;2023-09-19T03:23:49;3.80;;;2.80;;
3873;SDS011;1952;50.872;6.692;2023-09-19T03:26:17;10.30;;;3.50;;
3873;SDS011;1952;50.872;6.692;2023-09-19T03:28:46;6.00;;;2.43;;
3873;SDS011;1952;50.872;6.692;2023-09-19T03:31:14;4.33;;;2.30;;
3873;SDS011;1952;50.872;6.692;2023-09-19T03:33:42;7.70;;;3.20;;
3873;SDS011;1952;50.872;6.692;2023-09-19T03:36:10;7.30;;;3.27;;
3873;SDS011;1952;50.872;6.692;2023-09-19T03:38:40;9.57;;;3.07;;
3873;SDS011;1952;50.872;6.692;2023-09-19T03:41:10;10.03;;;3.17;;
3873;SDS011;1952;50.872;6.692;2023-09-19T03:43:40;8.27;;;3.27;;
3873;SDS011;1952;50.872;6.692;2023-09-19T03:46:09;7.90;;;3.20;;
3873;SDS011;1952;50.872;6.692;2023-09-19T03:48:39;5.70;;;2.67;;
3873;SDS011;1952;50.872;6.692;2023-09-19T03:51:07;8.97;;;3.07;;
3873;SDS011;1952;50.872;6.692;2023-09-19T03:53:35;6.83;;;3.00;;
3873;SDS011;1952;50.872;6.692;2023-09-19T03:56:03;10.70;;;2.73;;
3873;SDS011;1952;50.872;6.692;2023-09-19T03:58:34;2.43;;;2.10;;
3873;SDS011;1952;50.872;6.692;2023-09-19T04:01:05;6.73;;;3.07;;
3873;SDS011;1952;50.872;6.692;2023-09-19T04:03:34;10.70;;;4.00;;
3873;SDS011;1952;50.872;6.692;2023-09-19T04:06:13;6.70;;;2.67;;
3873;SDS011;1952;50.872;6.692;2023-09-19T04:08:41;5.40;;;2.80;;
3873;SDS011;1952;50.872;6.692;2023-09-19T04:11:10;5.37;;;3.33;;
3873;SDS011;1952;50.872;6.692;2023-09-19T04:13:40;4.90;;;3.23;;
3873;SDS011;1952;50.872;6.692;2023-09-19T04:16:08;4.63;;;2.27;;
3873;SDS011;1952;50.872;6.692;2023-09-19T04:18:37;10.47;;;3.10;;
3873;SDS011;1952;50.872;6.692;2023-09-19T04:21:06;4.60;;;2.83;;
3873;SDS011;1952;50.872;6.692;2023-09-19T04:23:34;3.70;;;2.70;;
3873;SDS011;1952;50.872;6.692;2023-09-19T04:26:02;6.77;;;2.53;;
3873;SDS011;1952;50.872;6.692;2023-09-19T04:28:32;4.60;;;2.07;;
3873;SDS011;1952;50.872;6.692;2023-09-19T04:31:06;7.70;;;3.13;;
3873;SDS011;1952;50.872;6.692;2023-09-19T04:33:36;6.63;;;3.07;;
3873;SDS011;1952;50.872;6.692;2023-09-19T04:36:05;7.93;;;3.00;;
3873;SDS011;1952;50.872;6.692;2023-09-19T04:38:53;8.50;;;3.70;;
3873;SDS011;1952;50.872;6.692;2023-09-19T04:41:22;8.37;;;4.43;;
3873;SDS011;1952;50.872;6.692;2023-09-19T04:43:50;5.93;;;3.30;;
3873;SDS011;1952;50.872;6.692;2023-09-19T04:46:20;5.17;;;2.90;;
3873;SDS011;1952;50.872;6.692;2023-09-19T04:48:48;8.67;;;2.90;;
3873;SDS011;1952;50.872;6.692;2023-09-19T04:51:16;12.33;;;3.80;;
3873;SDS011;1952;50.872;6.692;2023-09-19T04:53:48;8.00;;;2.73;;
3873;SDS011;1952;50.872;6.692;2023-09-19T04:56:16;9.37;;;3.90;;
3873;SDS011;1952;50.872;6.692;2023-09-19T04:58:44;4.17;;;3.60;;
3873;SDS011;1952;50.872;6.692;2023-09-19T05:01:13;7.67;;;3.30;;
3873;SDS011;1952;50.872;6.692;2023-09-19T05:03:43;6.73;;;2.63;;
3873;SDS011;1952;50.872;6.692;2023-09-19T05:06:15;3.93;;;3.23;;
3873;SDS011;1952;50.872;6.692;2023-09-19T05:08:44;6.10;;;2.40;;
3873;SDS011;1952;50.872;6.692;2023-09-19T05:11:12;4.77;;;2.67;;
3873;SDS011;1952;50.872;6.692;2023-09-19T05:13:41;6.90;;;3.27;;
3873;SDS011;1952;50.872;6.692;2023-09-19T05:16:09;6.20;;;2.50;;
3873;SDS011;1952;50.872;6.692;2023-09-19T05:18:38;7.40;;;3.17;;
3873;SDS011;1952;50.872;6.692;2023-09-19T05:21:08;8.20;;;3.30;;
3873;SDS011;1952;50.872;6.692;2023-09-19T05:23:36;7.37;;;3.43;;
3873;SDS011;1952;50.872;6.692;2023-09-19T05:26:09;7.70;;;2.90;;
3873;SDS011;1952;50.872;6.692;2023-09-19T05:28:42;10.17;;;4.07;;
3873;SDS011;1952;50.872;6.692;2023-09-19T05:31:12;9.40;;;3.60;;
3873;SDS011;1952;50.872;6.692;2023-09-19T05:33:42;16.30;;;4.10;;
3873;SDS011;1952;50.872;6.692;2023-09-19T05:36:12;10.40;;;2.87;;
3873;SDS011;1952;50.872;6.692;2023-09-19T05:38:45;9.67;;;3.10;;
3873;SDS011;1952;50.872;6.692;2023-09-19T05:41:17;9.37;;;4.00;;
3873;SDS011;1952;50.872;6.692;2023-09-19T05:43:49;7.37;;;3.93;;
3873;SDS011;1952;50.872;6.692;2023-09-19T05:46:17;6.27;;;3.40;;
3873;SDS011;1952;50.872;6.692;2023-09-19T05:48:50;10.80;;;2.93;;
3873;SDS011;1952;50.872;6.692;2023-09-19T05:51:20;6.83;;;2.90;;
3873;SDS011;1952;50.872;6.692;2023-09-19T05:53:51;12.37;;;4.23;;
3873;SDS011;1952;50.872;6.692;2023-09-19T05:56:33;5.53;;;3.00;;
3873;SDS011;1952;50.872;6.692;2023-09-19T05:59:19;5.00;;;2.70;;
3873;SDS011;1952;50.872;6.692;2023-09-19T06:01:49;6.07;;;3.53;;
3873;SDS011;1952;50.872;6.692;2023-09-19T06:04:20;7.30;;;3.43;;
3873;SDS011;1952;50.872;6.692;2023-09-19T06:06:52;6.13;;;2.83;;
3873;SDS011;1952;50.872;6.692;2023-09-19T06:09:24;6.57;;;2.70;;
3873;SDS011;1952;50.872;6.692;2023-09-19T06:12:21;12.50;;;3.23;;
3873;SDS011;1952;50.872;6.692;2023-09-19T06:14:51;10.37;;;3.27;;
3873;SDS011;1952;50.872;6.692;2023-09-19T06:17:20;4.83;;;2.97;;
3873;SDS011;1952;50.872;6.692;2023-09-19T06:19:50;7.80;;;3.20;;
3873;SDS011;1952;50.872;6.692;2023-09-19T06:22:25;3.70;;;2.43;;
3873;SDS011;1952;50.872;6.692;2023-09-19T06:24:56;8.30;;;3.10;;
3873;SDS011;1952;50.872;6.692;2023-09-19T06:27:25;8.30;;;2.40;;
3873;SDS011;1952;50.872;6.692;2023-09-19T06:30:09;4.40;;;3.47;;
3873;SDS011;1952;50.872;6.692;2023-09-19T06:32:40;6.57;;;3.13;;
3873;SDS011;1952;50.872;6.692;2023-09-19T06:35:13;9.60;;;3.80;;
3873;SDS011;1952;50.872;6.692;2023-09-19T06:37:58;6.77;;;3.17;;
3873;SDS011;1952;50.872;6.692;2023-09-19T06:40:44;8.03;;;3.87;;
3873;SDS011;1952;50.872;6.692;2023-09-19T06:43:15;7.43;;;4.00;;
3873;SDS011;1952;50.872;6.692;2023-09-19T06:45:50;7.13;;;2.47;;
3873;SDS011;1952;50.872;6.692;2023-09-19T06:48:36;6.43;;;2.70;;
3873;SDS011;1952;50.872;6.692;2023-09-19T06:51:10;7.57;;;3.70;;
3873;SDS011;1952;50.872;6.692;2023-09-19T06:54:11;9.20;;;2.97;;
3873;SDS011;1952;50.872;6.692;2023-09-19T06:56:43;6.53;;;2.50;;
3873;SDS011;1952;50.872;6.692;2023-09-19T06:59:14;7.43;;;2.73;;
3873;SDS011;1952;50.872;6.692;2023-09-19T07:04:58;5.37;;;3.10;;
3873;SDS011;1952;50.872;6.692;2023-09-19T07:07:46;8.93;;;3.20;;
3873;SDS011;1952;50.872;6.692;2023-09-19T07:10:30;7.30;;;3.40;;
3873;SDS011;1952;50.872;6.692;2023-09-19T07:13:19;5.13;;;2.50;;
3873;SDS011;1952;50.872;6.692;2023-09-19T07:15:48;5.23;;;3.03;;
3873;SDS011;1952;50.872;6.692;2023-09-19T07:18:19;6.87;;;3.43;;
3873;SDS011;1952;50.872;6.692;2023-09-19T07:21:02;6.87;;;3.00;;
3873;SDS011;1952;50.872;6.692;2023-09-19T07:23:47;7.37;;;2.67;;
3873;SDS011;1952;50.872;6.692;2023-09-19T07:31:57;8.13;;;3.20;;
3873;SDS011;1952;50.872;6.692;2023-09-19T07:34:47;5.73;;;2.93;;
3873;SDS011;1952;50.872;6.692;2023-09-19T07:37:29;5.40;;;2.40;;
3873;SDS011;1952;50.872;6.692;2023-09-19T07:40:01;7.50;;;3.10;;
3873;SDS011;1952;50.872;6.692;2023-09-19T07:42:35;5.90;;;2.57;;
3873;SDS011;1952;50.872;6.692;2023-09-19T07:45:08;7.30;;;2.80;;
3873;SDS011;1952;50.872;6.692;2023-09-19T07:47:48;6.50;;;3.27;;
3873;SDS011;1952;50.872;6.692;2023-09-19T07:50:19;4.47;;;2.60;;
3873;SDS011;1952;50.872;6.692;2023-09-19T07:52:48;6.07;;;2.77;;
3873;SDS011;1952;50.872;6.692;2023-09-19T07:55:19;6.37;;;2.47;;
3873;SDS011;1952;50.872;6.692;2023-09-19T07:57:53;6.30;;;2.57;;
3873;SDS011;1952;50.872;6.692;2023-09-19T08:00:27;6.13;;;3.17;;
3873;SDS011;1952;50.872;6.692;2023-09-19T08:02:57;8.60;;;3.30;;
3873;SDS011;1952;50.872;6.692;2023-09-19T08:05:34;4.77;;;2.83;;
3873;SDS011;1952;50.872;6.692;2023-09-19T08:08:04;5.47;;;2.60;;
3873;SDS011;1952;50.872;6.692;2023-09-19T08:10:42;8.60;;;3.20;;
3873;SDS011;1952;50.872;6.692;2023-09-19T08:13:15;5.30;;;3.40;;
3873;SDS011;1952;50.872;6.692;2023-09-19T08:15:44;9.67;;;3.33;;
3873;SDS011;1952;50.872;6.692;2023-09-19T08:18:28;4.20;;;2.70;;
3873;SDS011;1952;50.872;6.692;2023-09-19T08:21:02;5.87;;;3.27;;
3873;SDS011;1952;50.872;6.692;2023-09-19T08:23:32;5.90;;;3.10;;
3873;SDS011;1952;50.872;6.692;2023-09-19T08:26:02;5.63;;;2.77;;
3873;SDS011;1952;50.872;6.692;2023-09-19T08:28:36;5.13;;;2.67;;
3873;SDS011;1952;50.872;6.692;2023-09-19T08:31:07;5.37;;;3.43;;
3873;SDS011;1952;50.872;6.692;2023-09-19T08:33:39;3.50;;;2.33;;
3873;SDS011;1952;50.872;6.692;2023-09-19T08:38:43;5.10;;;2.53;;
3873;SDS011;1952;50.872;6.692;2023-09-19T08:41:13;10.07;;;3.53;;
3873;SDS011;1952;50.872;6.692;2023-09-19T08:43:49;6.63;;;2.87;;
3873;SDS011;1952;50.872;6.692;2023-09-19T08:46:18;7.17;;;2.57;;
3873;SDS011;1952;50.872;6.692;2023-09-19T08:48:54;4.20;;;2.70;;
3873;SDS011;1952;50.872;6.692;2023-09-19T08:51:33;3.50;;;2.87;;
3873;SDS011;1952;50.872;6.692;2023-09-19T08:54:19;5.00;;;2.37;;
3873;SDS011;1952;50.872;6.692;2023-09-19T09:03:20;3.60;;;2.10;;
3873;SDS011;1952;50.872;6.692;2023-09-19T09:06:20;3.90;;;2.50;;
3873;SDS011;1952;50.872;6.692;2023-09-19T09:09:17;4.53;;;2.57;;
3873;SDS011;1952;50.872;6.692;2023-09-19T09:12:05;3.77;;;2.50;;
3873;SDS011;1952;50.872;6.692;2023-09-19T09:14:46;4.27;;;2.30;;
3873;SDS011;1952;50.872;6.692;2023-09-19T09:17:20;5.10;;;2.50;;
3873;SDS011;1952;50.872;6.692;2023-09-19T09:20:16;2.37;;;2.00;;
3873;SDS011;1952;50.872;6.692;2023-09-19T09:23:08;5.63;;;2.73;;
3873;SDS011;1952;50.872;6.692;2023-09-19T09:25:55;2.57;;;1.90;;
3873;SDS011;1952;50.872;6.692;2023-09-19T09:28:29;4.27;;;2.20;;
3873;SDS011;1952;50.872;6.692;2023-09-19T09:31:07;4.70;;;2.43;;
3873;SDS011;1952;50.872;6.692;2023-09-19T09:33:55;7.03;;;2.70;;
3873;SDS011;1952;50.872;6.692;2023-09-19T09:36:34;2.87;;;2.23;;
3873;SDS011;1952;50.872;6.692;2023-09-19T09:39:07;4.50;;;2.53;;
3873;SDS011;1952;50.872;6.692;2023-09-19T09:41:45;3.83;;;2.43;;
3873;SDS011;1952;50.872;6.692;2023-09-19T09:44:14;3.80;;;2.10;;
3873;SDS011;1952;50.872;6.692;2023-09-19T09:47:00;5.37;;;2.43;;
3873;SDS011;1952;50.872;6.692;2023-09-19T09:49:45;3.90;;;2.07;;
3873;SDS011;1952;50.872;6.692;2023-09-19T09:52:21;6.10;;;2.47;;
3873;SDS011;1952;50.872;6.692;2023-09-19T09:54:58;4.13;;;1.70;;
3873;SDS011;1952;50.872;6.692;2023-09-19T09:57:28;3.67;;;1.90;;
3873;SDS011;1952;50.872;6.692;2023-09-19T09:59:59;3.17;;;2.43;;
3873;SDS011;1952;50.872;6.692;2023-09-19T10:02:59;1.97;;;1.77;;
3873;SDS011;1952;50.872;6.692;2023-09-19T10:08:45;3.53;;;2.50;;
3873;SDS011;1952;50.872;6.692;2023-09-19T10:11:44;3.60;;;2.20;;
3873;SDS011;1952;50.872;6.692;2023-09-19T10:14:15;6.37;;;2.33;;
3873;SDS011;1952;50.872;6.692;2023-09-19T10:16:46;2.83;;;2.47;;
3873;SDS011;1952;50.872;6.692;2023-09-19T10:19:20;4.07;;;2.00;;
3873;SDS011;1952;50.872;6.692;2023-09-19T10:22:02;3.87;;;3.03;;
3873;SDS011;1952;50.872;6.692;2023-09-19T10:24:35;4.13;;;2.10;;
3873;SDS011;1952;50.872;6.692;2023-09-19T10:27:26;4.03;;;2.77;;
3873;SDS011;1952;50.872;6.692;2023-09-19T10:29:56;6.20;;;3.10;;
3873;SDS011;1952;50.872;6.692;2023-09-19T10:32:28;5.10;;;2.63;;
3873;SDS011;1952;50.872;6.692;2023-09-19T10:35:01;3.80;;;2.13;;
3873;SDS011;1952;50.872;6.692;2023-09-19T10:38:09;4.63;;;2.23;;
3873;SDS011;1952;50.872;6.692;2023-09-19T10:40:56;5.53;;;2.30;;
3873;SDS011;1952;50.872;6.692;2023-09-19T10:43:40;3.03;;;2.33;;
3873;SDS011;1952;50.872;6.692;2023-09-19T10:48:59;3.13;;;2.20;;
3873;SDS011;1952;50.872;6.692;2023-09-19T11:03:26;3.90;;;2.80;;
3873;SDS011;1952;50.872;6.692;2023-09-19T11:06:11;4.47;;;2.50;;
3873;SDS011;1952;50.872;6.692;2023-09-19T11:09:09;4.73;;;2.43;;
3873;SDS011;1952;50.872;6.692;2023-09-19T11:12:08;8.40;;;2.87;;
3873;SDS011;1952;50.872;6.692;2023-09-19T11:18:08;3.63;;;2.70;;
3873;SDS011;1952;50.872;6.692;2023-09-19T11:36:26;3.87;;;2.10;;
3873;SDS011;1952;50.872;6.692;2023-09-19T11:39:31;3.60;;;2.53;;
3873;SDS011;1952;50.872;6.692;2023-09-19T11:44:53;3.77;;;2.27;;
3873;SDS011;1952;50.872;6.692;2023-09-19T11:47:47;5.23;;;2.50;;
3873;SDS011;1952;50.872;6.692;2023-09-19T11:50:49;4.27;;;2.47;;
3873;SDS011;1952;50.872;6.692;2023-09-19T11:53:33;3.20;;;2.53;;
3873;SDS011;1952;50.872;6.692;2023-09-19T11:56:07;2.63;;;2.23;;
3873;SDS011;1952;50.872;6.692;2023-09-19T11:59:06;6.47;;;2.60;;
3873;SDS011;1952;50.872;6.692;2023-09-19T12:01:40;3.67;;;2.10;;
3873;SDS011;1952;50.872;6.692;2023-09-19T12:04:36;2.87;;;2.20;;
3873;SDS011;1952;50.872;6.692;2023-09-19T12:07:34;3.03;;;2.30;;
3873;SDS011;1952;50.872;6.692;2023-09-19T12:13:51;4.63;;;2.60;;
3873;SDS011;1952;50.872;6.692;2023-09-19T12:16:42;6.07;;;2.27;;
3873;SDS011;1952;50.872;6.692;2023-09-19T12:19:34;3.60;;;2.30;;
3873;SDS011;1952;50.872;6.692;2023-09-19T12:22:07;5.47;;;2.07;;
3873;SDS011;1952;50.872;6.692;2023-09-19T12:24:37;2.80;;;2.23;;
3873;SDS011;1952;50.872;6.692;2023-09-19T12:27:12;6.07;;;2.37;;
3873;SDS011;1952;50.872;6.692;2023-09-19T12:30:00;3.23;;;2.17;;
3873;SDS011;1952;50.872;6.692;2023-09-19T12:32:47;2.40;;;1.97;;
3873;SDS011;1952;50.872;6.692;2023-09-19T12:39:11;3.13;;;2.00;;
3873;SDS011;1952;50.872;6.692;2023-09-19T12:42:03;3.57;;;2.33;;
3873;SDS011;1952;50.872;6.692;2023-09-19T12:44:42;6.17;;;3.30;;
3873;SDS011;1952;50.872;6.692;2023-09-19T12:47:32;2.43;;;2.10;;
3873;SDS011;1952;50.872;6.692;2023-09-19T12:50:08;3.80;;;1.80;;
3873;SDS011;1952;50.872;6.692;2023-09-19T12:52:42;2.93;;;1.80;;
3873;SDS011;1952;50.872;6.692;2023-09-19T12:55:20;5.87;;;1.90;;
3873;SDS011;1952;50.872;6.692;2023-09-19T12:58:08;2.93;;;1.87;;
3873;SDS011;1952;50.872;6.692;2023-09-19T13:00:37;3.73;;;2.20;;
3873;SDS011;1952;50.872;6.692;2023-09-19T13:03:16;2.93;;;2.50;;
3873;SDS011;1952;50.872;6.692;2023-09-19T13:06:02;5.40;;;1.93;;
3873;SDS011;1952;50.872;6.692;2023-09-19T13:46:16;2.93;;;2.00;;
3873;SDS011;1952;50.872;6.692;2023-09-19T13:49:01;1.87;;;1.63;;
3873;SDS011;1952;50.872;6.692;2023-09-19T13:51:34;4.27;;;1.60;;
3873;SDS011;1952;50.872;6.692;2023-09-19T13:54:15;2.27;;;1.70;;
3873;SDS011;1952;50.872;6.692;2023-09-19T13:57:09;4.37;;;1.70;;
3873;SDS011;1952;50.872;6.692;2023-09-19T13:59:57;2.20;;;1.80;;
3873;SDS011;1952;50.872;6.692;2023-09-19T14:05:24;2.17;;;1.97;;
3873;SDS011;1952;50.872;6.692;2023-09-19T14:08:13;1.80;;;1.40;;
3873;SDS011;1952;50.872;6.692;2023-09-19T14:11:12;2.27;;;1.90;;
3873;SDS011;1952;50.872;6.692;2023-09-19T14:13:57;2.23;;;1.80;;
3873;SDS011;1952;50.872;6.692;2023-09-19T14:16:44;4.00;;;1.80;;
3873;SDS011;1952;50.872;6.692;2023-09-19T14:19:42;2.37;;;1.53;;
3873;SDS011;1952;50.872;6.692;2023-09-19T14:22:14;1.90;;;1.30;;
3873;SDS011;1952;50.872;6.692;2023-09-19T14:25:04;4.63;;;1.87;;
3873;SDS011;1952;50.872;6.692;2023-09-19T14:27:50;2.87;;;2.17;;
3873;SDS011;1952;50.872;6.692;2023-09-19T14:30:37;2.33;;;1.80;;
3873;SDS011;1952;50.872;6.692;2023-09-19T14:33:24;3.37;;;1.77;;
3873;SDS011;1952;50.872;6.692;2023-09-19T14:35:54;4.43;;;1.77;;
3873;SDS011;1952;50.872;6.692;2023-09-19T14:38:40;3.00;;;1.80;;
3873;SDS011;1952;50.872;6.692;2023-09-19T14:41:19;2.97;;;1.83;;
3873;SDS011;1952;50.872;6.692;2023-09-19T14:43:49;3.87;;;1.40;;
3873;SDS011;1952;50.872;6.692;2023-09-19T14:46:18;3.73;;;1.80;;
3873;SDS011;1952;50.872;6.692;2023-09-19T14:48:47;2.23;;;1.57;;
3873;SDS011;1952;50.872;6.692;2023-09-19T14:51:18;3.00;;;1.83;;
3873;SDS011;1952;50.872;6.692;2023-09-19T14:56:53;2.87;;;2.30;;
3873;SDS011;1952;50.872;6.692;2023-09-19T14:59:44;2.33;;;1.50;;
3873;SDS011;1952;50.872;6.692;2023-09-19T15:02:13;2.77;;;1.37;;
3873;SDS011;1952;50.872;6.692;2023-09-19T15:04:46;4.50;;;2.13;;
3873;SDS011;1952;50.872;6.692;2023-09-19T15:07:19;3.53;;;1.83;;
3873;SDS011;1952;50.872;6.692;2023-09-19T15:10:01;2.40;;;2.20;;
3873;SDS011;1952;50.872;6.692;2023-09-19T15:12:45;3.43;;;1.50;;
3873;SDS011;1952;50.872;6.692;2023-09-19T15:15:38;2.60;;;1.40;;
3873;SDS011;1952;50.872;6.692;2023-09-19T15:18:12;1.87;;;1.53;;
3873;SDS011;1952;50.872;6.692;2023-09-19T15:20:49;4.10;;;1.77;;
3873;SDS011;1952;50.872;6.692;2023-09-19T15:23:18;2.20;;;1.80;;
3873;SDS011;1952;50.872;6.692;2023-09-19T15:25:58;3.33;;;1.80;;
3873;SDS011;1952;50.872;6.692;2023-09-19T15:28:42;1.50;;;1.20;;
3873;SDS011;1952;50.872;6.692;2023-09-19T15:31:16;2.63;;;2.30;;
3873;SDS011;1952;50.872;6.692;2023-09-19T15:33:45;3.10;;;1.50;;
3873;SDS011;1952;50.872;6.692;2023-09-19T15:36:15;2.03;;;1.67;;
3873;SDS011;1952;50.872;6.692;2023-09-19T15:38:56;5.07;;;2.53;;
3873;SDS011;1952;50.872;6.692;2023-09-19T15:41:28;2.37;;;1.67;;
3873;SDS011;1952;50.872;6.692;2023-09-19T15:44:10;2.17;;;1.80;;
3873;SDS011;1952;50.872;6.692;2023-09-19T15:46:56;2.70;;;1.70;;
3873;SDS011;1952;50.872;6.692;2023-09-19T15:49:29;5.47;;;1.67;;
3873;SDS011;1952;50.872;6.692;2023-09-19T15:52:16;2.70;;;1.60;;
3873;SDS011;1952;50.872;6.692;2023-09-19T15:57:54;2.07;;;1.80;;
3873;SDS011;1952;50.872;6.692;2023-09-19T16:00:32;2.00;;;1.70;;
3873;SDS011;1952;50.872;6.692;2023-09-19T16:03:24;2.10;;;1.90;;
3873;SDS011;1952;50.872;6.692;2023-09-19T16:08:48;5.90;;;1.77;;
3873;SDS011;1952;50.872;6.692;2023-09-19T16:11:31;1.70;;;1.60;;
3873;SDS011;1952;50.872;6.692;2023-09-19T16:14:01;2.40;;;1.30;;
3873;SDS011;1952;50.872;6.692;2023-09-19T16:16:38;2.57;;;1.43;;
3873;SDS011;1952;50.872;6.692;2023-09-19T16:19:07;2.13;;;1.50;;
3873;SDS011;1952;50.872;6.692;2023-09-19T16:21:37;3.70;;;1.80;;
3873;SDS011;1952;50.872;6.692;2023-09-19T16:24:24;2.67;;;2.20;;
3873;SDS011;1952;50.872;6.692;2023-09-19T16:36:22;2.07;;;1.70;;
3873;SDS011;1952;50.872;6.692;2023-09-19T16:39:10;2.77;;;1.67;;
3873;SDS011;1952;50.872;6.692;2023-09-19T16:41:55;2.00;;;1.60;;
3873;SDS011;1952;50.872;6.692;2023-09-19T16:44:27;2.90;;;2.23;;
3873;SDS011;1952;50.872;6.692;2023-09-19T16:47:23;2.33;;;2.13;;
3873;SDS011;1952;50.872;6.692;2023-09-19T16:49:57;2.90;;;1.90;;
3873;SDS011;1952;50.872;6.692;2023-09-19T16:53:15;3.67;;;1.93;;
3873;SDS011;1952;50.872;6.692;2023-09-19T16:55:45;4.47;;;2.00;;
3873;SDS011;1952;50.872;6.692;2023-09-19T16:58:16;1.80;;;1.40;;
3873;SDS011;1952;50.872;6.692;2023-09-19T17:00:46;2.70;;;1.77;;
3873;SDS011;1952;50.872;6.692;2023-09-19T17:03:32;3.20;;;1.77;;
3873;SDS011;1952;50.872;6.692;2023-09-19T17:06:02;2.10;;;1.60;;
3873;SDS011;1952;50.872;6.692;2023-09-19T17:08:38;4.80;;;2.33;;
3873;SDS011;1952;50.872;6.692;2023-09-19T17:11:07;3.77;;;2.00;;
3873;SDS011;1952;50.872;6.692;2023-09-19T17:13:39;3.63;;;1.73;;
3873;SDS011;1952;50.872;6.692;2023-09-19T17:16:09;4.63;;;1.80;;
3873;SDS011;1952;50.872;6.692;2023-09-19T17:18:38;3.77;;;1.53;;
3873;SDS011;1952;50.872;6.692;2023-09-19T17:21:13;6.20;;;2.30;;
3873;SDS011;1952;50.872;6.692;2023-09-19T17:26:57;2.90;;;2.13;;
3873;SDS011;1952;50.872;6.692;2023-09-19T17:29:26;3.70;;;2.13;;
3873;SDS011;1952;50.872;6.692;2023-09-19T17:32:10;4.40;;;2.00;;
3873;SDS011;1952;50.872;6.692;2023-09-19T17:34:39;3.40;;;2.10;;
3873;SDS011;1952;50.872;6.692;2023-09-19T17:37:08;2.57;;;1.50;;
3873;SDS011;1952;50.872;6.692;2023-09-19T17:39:41;3.13;;;1.80;;
3873;SDS011;1952;50.872;6.692;2023-09-19T17:42:11;2.40;;;1.83;;
3873;SDS011;1952;50.872;6.692;2023-09-19T17:44:45;2.30;;;1.73;;
3873;SDS011;1952;50.872;6.692;2023-09-19T17:47:28;2.87;;;1.90;;
3873;SDS011;1952;50.872;6.692;2023-09-19T17:49:59;2.07;;;1.87;;
3873;SDS011;1952;50.872;6.692;2023-09-19T17:52:30;4.20;;;2.13;;
3873;SDS011;1952;50.872;6.692;2023-09-19T17:54:59;2.57;;;1.77;;
3873;SDS011;1952;50.872;6.692;2023-09-19T18:00:19;2.77;;;1.73;;
3873;SDS011;1952;50.872;6.692;2023-09-19T18:02:48;3.43;;;1.77;;
3873;SDS011;1952;50.872;6.692;2023-09-19T18:05:21;6.60;;;2.07;;
3873;SDS011;1952;50.872;6.692;2023-09-19T18:07:49;3.93;;;1.73;;
3873;SDS011;1952;50.872;6.692;2023-09-19T18:10:20;3.60;;;2.17;;
3873;SDS011;1952;50.872;6.692;2023-09-19T18:12:50;4.67;;;2.40;;
3873;SDS011;1952;50.872;6.692;2023-09-19T18:15:24;2.63;;;2.03;;
3873;SDS011;1952;50.872;6.692;2023-09-19T18:18:03;3.30;;;1.90;;
3873;SDS011;1952;50.872;6.692;2023-09-19T18:20:33;5.07;;;1.83;;
3873;SDS011;1952;50.872;6.692;2023-09-19T18:23:03;4.00;;;2.13;;
3873;SDS011;1952;50.872;6.692;2023-09-19T18:25:34;6.50;;;2.50;;
3873;SDS011;1952;50.872;6.692;2023-09-19T18:28:04;3.83;;;2.00;;
3873;SDS011;1952;50.872;6.692;2023-09-19T18:30:36;3.23;;;2.10;;
3873;SDS011;1952;50.872;6.692;2023-09-19T18:33:04;3.10;;;1.70;;
3873;SDS011;1952;50.872;6.692;2023-09-19T18:35:48;3.13;;;2.27;;
3873;SDS011;1952;50.872;6.692;2023-09-19T18:38:19;2.20;;;1.77;;
3873;SDS011;1952;50.872;6.692;2023-09-19T18:40:48;4.77;;;2.17;;
3873;SDS011;1952;50.872;6.692;2023-09-19T18:43:18;1.97;;;1.70;;
3873;SDS011;1952;50.872;6.692;2023-09-19T18:46:06;2.27;;;2.03;;
3873;SDS011;1952;50.872;6.692;2023-09-19T18:48:36;3.27;;;2.20;;
3873;SDS011;1952;50.872;6.692;2023-09-19T18:51:05;3.47;;;2.17;;
3873;SDS011;1952;50.872;6.692;2023-09-19T18:53:33;3.10;;;2.43;;